Station History

Weather Underground - logo

Station Historical Data
Daily Summary for January 10, 2018 Units:  English    Metric   Both
« Previous Day
Next Day »
Daily Weekly Monthly Yearly Custom
  High: Low: Average:
Temperature: 59.9 °F 45.7 °F 51.8 °F
Dew Point: 52.3 °F 44.4 °F 49.2 °F
Humidity: 96 % 76 % 91 %
Wind Speed: 4.6 mph 0.0 mph 1 mph
Wind Gust: 4.6 mph - -
Wind:- - NW
Pressure: 30.25 in 30.01 in -
Precipitation: 0.00 in    
Historical Graphs
 
 
Tabular Data for January 10, 2018
Time Temperature Dew Point Pressure Wind Wind Speed Wind Gust Humidity Rainfall Rate (Hourly)
04:58 51.1 °F 50.0 °F 30.01 in Calm     96 % 0.00 in
05:12 51.2 °F 50.1 °F 30.02 in Calm     96 % 0.00 in
05:26 51.3 °F 49.9 °F 30.02 in Calm     95 % 0.00 in
05:43 51.7 °F 50.3 °F 30.03 in NW 1.2 mph 1.2 mph 95 % 0.00 in
05:56 51.9 °F 50.5 °F 30.04 in NW 1.0 mph 1.0 mph 95 % 0.00 in
06:05 52.0 °F 50.6 °F 30.04 in NW 1.2 mph 1.2 mph 95 % 0.00 in
06:17 52.0 °F 50.3 °F 30.05 in NW 1.0 mph 1.0 mph 94 % 0.00 in
06:23 52.1 °F 50.4 °F 30.06 in NNW 1.2 mph 1.2 mph 94 % 0.00 in
06:33 52.1 °F 50.4 °F 30.06 in Calm     94 % 0.00 in
06:39 52.2 °F 50.8 °F 30.06 in NW 1.2 mph 1.2 mph 95 % 0.00 in
06:47 52.2 °F 50.8 °F 30.07 in NW 1.2 mph 1.2 mph 95 % 0.00 in
07:04 52.2 °F 50.8 °F 30.08 in NW 1.2 mph 1.2 mph 95 % 0.00 in
07:21 52.1 °F 50.4 °F 30.09 in NW 1.2 mph   94 % 0.00 in
07:28 52.1 °F 50.4 °F 30.09 in WNW 1.2 mph 1.2 mph 94 % 0.00 in
07:37 52.1 °F 50.4 °F 30.09 in NNW 2.3 mph 2.3 mph 94 % 0.00 in
07:47 52.0 °F 50.3 °F 30.10 in NW 2.3 mph 2.3 mph 94 % 0.00 in
07:53 51.9 °F 50.2 °F 30.10 in NW 2.3 mph 2.3 mph 94 % 0.00 in
08:09 51.6 °F 49.9 °F 30.09 in NW 2.0 mph 2.0 mph 94 % 0.00 in
08:21 51.7 °F 49.7 °F 30.10 in NW 2.3 mph 2.3 mph 93 % 0.00 in
08:29 52.0 °F 50.0 °F 30.11 in WNW 1.2 mph 1.2 mph 93 % 0.00 in
08:37 52.3 °F 50.3 °F 30.12 in NW 2.3 mph 2.3 mph 93 % 0.00 in
08:46 52.7 °F 50.7 °F 30.12 in NW 1.2 mph 1.2 mph 93 % 0.00 in
08:53 53.0 °F 50.4 °F 30.13 in NNW 2.3 mph 2.3 mph 91 % 0.00 in
09:00 53.2 °F 50.6 °F 30.14 in NW 2.3 mph 2.3 mph 91 % 0.00 in
09:07 53.6 °F 50.7 °F 30.15 in NW 2.3 mph 2.3 mph 90 % 0.00 in
09:14 54.0 °F 51.1 °F 30.15 in NNW 3.5 mph 3.5 mph 90 % 0.00 in
09:22 54.1 °F 50.9 °F 30.16 in NW 3.5 mph 3.5 mph 89 % 0.00 in
09:40 54.6 °F 51.4 °F 30.17 in NW 3.5 mph 3.5 mph 89 % 0.00 in
09:46 54.6 °F 51.1 °F 30.18 in NNW 2.3 mph 2.3 mph 88 % 0.00 in
09:52 54.7 °F 51.2 °F 30.18 in NNW 4.6 mph 4.6 mph 88 % 0.00 in
10:00 55.2 °F 51.4 °F 30.18 in NW 3.5 mph 3.5 mph 87 % 0.00 in
10:05 55.3 °F 51.2 °F 30.18 in NW 3.5 mph 3.5 mph 86 % 0.00 in
16:09 59.9 °F 52.3 °F 30.15 in NW 3.5 mph 3.5 mph 76 % 0.00 in
16:16 59.7 °F 52.1 °F 30.15 in NW 2.3 mph 2.3 mph 76 % 0.00 in
16:25 59.4 °F 51.8 °F 30.15 in NW 3.5 mph 3.5 mph 76 % 0.00 in
16:37 59.1 °F 52.2 °F 30.16 in NW 2.3 mph 2.3 mph 78 % 0.00 in
16:46 58.6 °F 51.8 °F 30.16 in North 3.5 mph 3.5 mph 78 % 0.00 in
16:52 58.2 °F 51.7 °F 30.16 in WNW 2.3 mph   79 % 0.00 in
17:00 57.7 °F 51.6 °F 30.16 in Calm     80 % 0.00 in
17:06 57.4 °F 51.3 °F 30.16 in WNW 1.0 mph 1.0 mph 80 % 0.00 in
17:27 56.0 °F 50.9 °F 30.17 in Calm     83 % 0.00 in
17:36 55.4 °F 50.6 °F 30.16 in Calm     84 % 0.00 in
17:56 54.5 °F 50.7 °F 30.17 in Calm     87 % 0.00 in
18:02 54.5 °F 50.7 °F 30.17 in Calm     87 % 0.00 in
18:07 54.4 °F 50.9 °F 30.17 in Calm     88 % 0.00 in
18:14 54.3 °F 50.8 °F 30.17 in Calm     88 % 0.00 in
18:19 54.2 °F 50.7 °F 30.17 in Calm     88 % 0.00 in
18:45 53.3 °F 50.1 °F 30.17 in Calm     89 % 0.00 in
19:00 52.0 °F 49.5 °F 30.18 in Calm     91 % 0.00 in
19:24 50.8 °F 48.8 °F 30.19 in Calm     93 % 0.00 in
19:32 50.6 °F 48.7 °F 30.19 in Calm     93 % 0.00 in
19:46 50.3 °F 48.4 °F 30.19 in Calm     93 % 0.00 in
19:57 49.7 °F 47.8 °F 30.19 in Calm     93 % 0.00 in
20:03 49.4 °F 47.5 °F 30.20 in Calm     93 % 0.00 in
20:09 49.1 °F 47.2 °F 30.20 in Calm     93 % 0.00 in
20:21 48.7 °F 47.1 °F 30.21 in Calm     94 % 0.00 in
20:27 48.3 °F 46.7 °F 30.21 in Calm     94 % 0.00 in
20:35 48.1 °F 46.5 °F 30.21 in Calm     94 % 0.00 in
20:47 48.2 °F 46.6 °F 30.21 in Calm     94 % 0.00 in
20:52 48.2 °F 46.8 °F 30.21 in Calm     95 % 0.00 in
20:57 48.1 °F 46.5 °F 30.21 in Calm     94 % 0.00 in
21:02 48.0 °F 46.6 °F 30.22 in Calm     95 % 0.00 in
21:29 48.5 °F 47.1 °F 30.22 in Calm     95 % 0.00 in
21:35 48.4 °F 47.0 °F 30.22 in Calm     95 % 0.00 in
21:42 48.2 °F 46.8 °F 30.22 in Calm     95 % 0.00 in
21:58 47.9 °F 46.5 °F 30.22 in Calm     95 % 0.00 in
22:23 47.5 °F 46.1 °F 30.23 in Calm     95 % 0.00 in
22:29 47.3 °F 45.9 °F 30.23 in Calm     95 % 0.00 in
22:42 47.1 °F 45.7 °F 30.23 in Calm     95 % 0.00 in
22:52 46.8 °F 45.4 °F 30.23 in Calm     95 % 0.00 in
23:09 46.2 °F 44.8 °F 30.24 in Calm     95 % 0.00 in
23:21 45.8 °F 44.4 °F 30.25 in Calm     95 % 0.00 in
23:30 45.8 °F 44.4 °F 30.25 in Calm     95 % 0.00 in
23:35 45.7 °F 44.4 °F 30.25 in Calm     95 % 0.00 in
23:46 46.1 °F 45.0 °F 30.25 in Calm     96 % 0.00 in
23:52 46.3 °F 45.2 °F 30.25 in Calm     96 % 0.00 in
23:57 46.3 °F 45.2 °F 30.25 in Calm     96 % 0.00 in
Park Place, Exeter, Tulare County, California, USA
Compliments of Weather Underground - 1.5 mb